createdAt,value
2018-11-12T00:01:53.919Z,1.70
2018-11-12T00:04:23.773Z,2.27
2018-11-12T00:06:53.482Z,1.30
2018-11-12T00:09:23.107Z,2.00
2018-11-12T00:11:53.042Z,5.70
2018-11-12T00:14:22.696Z,1.20
2018-11-12T00:16:52.310Z,2.07
2018-11-12T00:19:22.120Z,2.00
2018-11-12T00:21:51.837Z,1.37
2018-11-12T00:24:21.662Z,1.27
2018-11-12T00:26:51.325Z,2.23
2018-11-12T00:29:20.890Z,1.60
2018-11-12T00:31:50.585Z,2.60
2018-11-12T00:34:20.259Z,1.43
2018-11-12T00:36:50.359Z,1.40
2018-11-12T00:39:19.974Z,3.42
2018-11-12T00:41:49.586Z,1.57
2018-11-12T00:44:19.174Z,2.17
2018-11-12T00:46:48.871Z,1.80
2018-11-12T00:49:18.563Z,1.47
2018-11-12T00:51:48.336Z,1.07
2018-11-12T00:54:18.559Z,3.67
2018-11-12T00:56:48.265Z,1.87
2018-11-12T00:59:17.981Z,1.80
2018-11-12T01:01:47.674Z,1.23
2018-11-12T01:04:17.407Z,3.03
2018-11-12T01:06:46.848Z,2.33
2018-11-12T01:09:16.526Z,5.47
2018-11-12T01:11:46.188Z,1.25
2018-11-12T01:14:15.919Z,1.17
2018-11-12T01:16:45.816Z,3.50
2018-11-12T01:19:16.054Z,1.13
2018-11-12T01:21:45.900Z,1.47
2018-11-12T01:24:15.531Z,1.42
2018-11-12T01:26:45.393Z,3.93
2018-11-12T01:29:15.135Z,1.80
2018-11-12T01:31:45.344Z,2.50
2018-11-12T01:34:15.145Z,1.00
2018-11-12T01:36:44.940Z,1.30
2018-11-12T01:39:16.168Z,2.40
2018-11-12T01:41:47.009Z,2.52
2018-11-12T01:44:16.723Z,1.60
2018-11-12T01:46:46.976Z,1.87
2018-11-12T01:49:17.261Z,2.57
2018-11-12T01:51:47.125Z,2.43
2018-11-12T01:54:16.785Z,2.40
2018-11-12T01:56:46.614Z,2.07
2018-11-12T01:59:16.175Z,1.40
2018-11-12T02:01:45.924Z,1.80
2018-11-12T02:04:15.528Z,1.77
2018-11-12T02:06:45.251Z,2.22
2018-11-12T02:09:14.862Z,1.03
2018-11-12T02:11:44.536Z,0.70
2018-11-12T02:14:14.089Z,1.37
2018-11-12T02:16:43.718Z,0.90
2018-11-12T02:19:13.477Z,0.98
2018-11-12T02:21:43.209Z,1.43
2018-11-12T02:24:12.909Z,2.10
2018-11-12T02:26:42.986Z,1.65
2018-11-12T02:29:12.646Z,1.47
2018-11-12T02:31:42.225Z,1.30
2018-11-12T02:34:11.858Z,4.33
2018-11-12T02:36:41.564Z,1.73
2018-11-12T02:39:11.749Z,2.00
2018-11-12T02:41:41.524Z,2.20
2018-11-12T02:44:11.240Z,1.87
2018-11-12T02:46:40.844Z,6.25
2018-11-12T02:49:10.511Z,2.53
2018-11-12T02:51:40.246Z,1.67
2018-11-12T02:54:09.926Z,0.73
2018-11-12T02:56:39.515Z,4.03
2018-11-12T02:59:09.136Z,2.00
2018-11-12T03:01:38.984Z,0.82
2018-11-12T03:04:08.849Z,1.05
2018-11-12T03:06:38.471Z,0.63
2018-11-12T03:09:12.424Z,3.60
2018-11-12T03:11:42.290Z,0.87
2018-11-12T03:14:12.015Z,8.03
2018-11-12T03:16:41.686Z,3.47
2018-11-12T03:19:11.391Z,2.50
2018-11-12T03:21:41.141Z,17.60
2018-11-12T03:24:11.834Z,8.20
2018-11-12T03:26:41.589Z,2.77
2018-11-12T03:29:11.351Z,1.43
2018-11-12T03:31:40.984Z,2.10
2018-11-12T03:34:10.547Z,1.60
2018-11-12T03:36:40.251Z,0.80
2018-11-12T03:39:11.059Z,1.60
2018-11-12T03:41:40.696Z,1.17
2018-11-12T03:44:10.434Z,2.13
2018-11-12T03:46:40.064Z,1.67
2018-11-12T03:49:09.783Z,2.43
2018-11-12T03:51:39.580Z,1.27
2018-11-12T03:54:09.109Z,3.73
2018-11-12T03:56:38.817Z,1.43
2018-11-12T03:59:08.463Z,3.20
2018-11-12T04:01:44.823Z,1.00
2018-11-12T04:04:16.828Z,1.35
2018-11-12T04:06:47.189Z,3.07
2018-11-12T04:09:16.831Z,0.80
2018-11-12T04:11:46.681Z,13.90
2018-11-12T04:14:16.609Z,2.17
2018-11-12T04:16:46.419Z,2.58
2018-11-12T04:19:16.027Z,2.30
2018-11-12T04:21:45.654Z,1.70
2018-11-12T04:24:15.320Z,0.60
2018-11-12T04:26:44.920Z,0.87
2018-11-12T04:29:15.798Z,1.87
2018-11-12T04:31:45.425Z,2.60
2018-11-12T04:34:15.110Z,1.00
2018-11-12T04:36:44.900Z,1.47
2018-11-12T04:39:14.647Z,2.60
2018-11-12T04:41:44.220Z,1.80
2018-11-12T04:44:13.886Z,2.73
2018-11-12T04:46:43.464Z,2.57
2018-11-12T04:49:13.093Z,2.60
2018-11-12T04:51:42.845Z,2.22
2018-11-12T04:54:12.545Z,2.85
2018-11-12T04:56:42.155Z,2.93
2018-11-12T04:59:11.762Z,1.83
2018-11-12T05:01:41.404Z,2.97
2018-11-12T05:04:11.214Z,2.43
2018-11-12T05:06:40.796Z,3.27
2018-11-12T05:09:11.596Z,2.13
2018-11-12T05:11:41.720Z,2.20
2018-11-12T05:14:11.382Z,1.52
2018-11-12T05:16:41.207Z,2.13
2018-11-12T05:19:10.672Z,2.27
2018-11-12T05:21:41.058Z,4.67
2018-11-12T05:24:10.817Z,1.90
2018-11-12T05:26:40.502Z,2.57
2018-11-12T05:29:10.168Z,2.37
2018-11-12T05:31:39.800Z,2.93
2018-11-12T05:34:09.695Z,2.20
2018-11-12T05:36:39.336Z,4.03
2018-11-12T05:39:12.337Z,3.60
2018-11-12T05:41:41.995Z,5.50
2018-11-12T05:44:11.822Z,2.80
2018-11-12T05:46:41.440Z,3.87
2018-11-12T05:49:11.152Z,4.50
2018-11-12T05:51:40.985Z,6.50
2018-11-12T05:54:10.681Z,7.07
2018-11-12T05:56:40.206Z,8.30
2018-11-12T05:59:09.924Z,7.67
2018-11-12T06:01:39.756Z,7.47
2018-11-12T06:04:09.801Z,10.27
2018-11-12T06:06:39.421Z,7.25
2018-11-12T06:09:11.431Z,6.63
2018-11-12T06:11:41.099Z,6.23
2018-11-12T06:14:10.781Z,4.03
2018-11-12T06:16:40.586Z,6.97
2018-11-12T06:19:10.883Z,5.90
2018-11-12T06:21:40.652Z,5.07
2018-11-12T06:24:10.556Z,3.53
2018-11-12T06:26:40.249Z,6.47
2018-11-12T06:29:09.857Z,4.05
2018-11-12T06:31:40.157Z,5.90
2018-11-12T06:34:10.091Z,2.10
2018-11-12T06:36:39.761Z,3.13
2018-11-12T06:39:10.210Z,3.20
2018-11-12T06:41:39.997Z,2.33
2018-11-12T06:44:10.305Z,2.23
2018-11-12T06:46:39.999Z,3.07
2018-11-12T06:49:09.678Z,4.43
2018-11-12T06:51:39.475Z,5.43
2018-11-12T06:54:09.225Z,2.70
2018-11-12T06:56:39.371Z,5.87
2018-11-12T06:59:09.075Z,5.22
2018-11-12T07:01:38.877Z,8.50
2018-11-12T07:04:08.577Z,7.20
2018-11-12T07:06:38.221Z,3.77
2018-11-12T07:09:11.336Z,6.03
2018-11-12T07:11:41.001Z,3.37
2018-11-12T07:14:10.957Z,3.53
2018-11-12T07:16:40.562Z,5.60
2018-11-12T07:19:10.975Z,7.27
2018-11-12T07:21:41.581Z,4.95
2018-11-12T07:24:11.450Z,7.30
2018-11-12T07:26:41.037Z,3.30
2018-11-12T07:29:10.693Z,4.40
2018-11-12T07:31:40.491Z,6.90
2018-11-12T07:34:10.295Z,5.90
2018-11-12T07:36:40.590Z,6.87
2018-11-12T07:39:11.577Z,11.07
2018-11-12T07:41:41.097Z,8.13
2018-11-12T07:44:10.603Z,4.00
2018-11-12T07:46:40.516Z,7.95
2018-11-12T07:49:10.200Z,6.83
2018-11-12T07:51:39.960Z,6.03
2018-11-12T07:54:09.989Z,5.83
2018-11-12T07:56:39.627Z,4.53
2018-11-12T07:59:09.231Z,6.72
2018-11-12T08:01:38.996Z,5.20
2018-11-12T08:04:08.757Z,4.43
2018-11-12T08:06:38.570Z,3.37
2018-11-12T08:09:10.146Z,4.55
2018-11-12T08:11:39.975Z,4.60
2018-11-12T08:14:09.746Z,3.30
2018-11-12T08:16:39.465Z,4.00
2018-11-12T08:19:09.095Z,5.43
2018-11-12T08:21:38.722Z,5.20
2018-11-12T08:24:08.502Z,2.93
2018-11-12T08:26:38.278Z,5.87
2018-11-12T08:29:07.921Z,4.13
2018-11-12T08:31:37.641Z,4.57
2018-11-12T08:34:07.220Z,5.20
2018-11-12T08:36:37.199Z,8.87
2018-11-12T08:39:08.476Z,6.90
2018-11-12T08:41:38.107Z,4.50
2018-11-12T08:44:07.993Z,5.47
2018-11-12T08:46:37.755Z,6.78
2018-11-12T08:49:07.805Z,5.80
2018-11-12T08:51:37.675Z,5.93
2018-11-12T08:54:07.952Z,2.87
2018-11-12T08:56:37.574Z,2.83
2018-11-12T08:59:07.371Z,5.97
2018-11-12T09:01:37.210Z,2.30
2018-11-12T09:04:06.947Z,6.23
2018-11-12T09:06:37.273Z,4.58
2018-11-12T09:09:11.559Z,3.97
2018-11-12T09:11:41.668Z,5.33
2018-11-12T09:14:11.550Z,7.77
2018-11-12T09:16:41.851Z,6.57
2018-11-12T09:19:11.591Z,7.97
2018-11-12T09:21:41.547Z,5.73
2018-11-12T09:24:11.247Z,6.03
2018-11-12T09:26:41.396Z,6.10
2018-11-12T09:29:11.194Z,7.60
2018-11-12T09:31:41.512Z,11.03
2018-11-12T09:34:11.561Z,6.00
2018-11-12T09:36:41.475Z,5.25
2018-11-12T09:39:12.431Z,7.80
2018-11-12T09:41:42.266Z,6.13
2018-11-12T09:44:11.899Z,11.73
2018-11-12T09:46:41.588Z,9.63
2018-11-12T09:49:11.370Z,8.97
2018-11-12T09:51:41.136Z,6.40
2018-11-12T09:54:11.010Z,7.17
2018-11-12T09:56:40.500Z,8.30
2018-11-12T09:59:10.283Z,9.37
2018-11-12T10:01:40.601Z,9.63
2018-11-12T10:04:10.732Z,6.87
2018-11-12T10:06:41.398Z,5.10
2018-11-12T10:09:16.036Z,6.65
2018-11-12T10:11:45.054Z,6.70
2018-11-12T10:14:14.277Z,6.70
2018-11-12T10:16:44.659Z,7.27
2018-11-12T10:19:12.272Z,5.90
2018-11-12T10:21:42.102Z,5.67
2018-11-12T10:24:11.806Z,8.90
2018-11-12T10:26:41.520Z,7.10
2018-11-12T10:29:11.372Z,5.33
2018-11-12T10:31:41.092Z,7.13
2018-11-12T10:34:11.064Z,6.07
2018-11-12T10:36:41.021Z,5.93
2018-11-12T10:39:10.951Z,10.17
2018-11-12T10:41:40.682Z,5.70
2018-11-12T10:44:10.456Z,7.37
2018-11-12T10:46:40.468Z,6.67
2018-11-12T10:49:10.335Z,6.10
2018-11-12T10:51:40.118Z,10.37
2018-11-12T10:54:10.057Z,8.15
2018-11-12T10:56:39.455Z,7.43
2018-11-12T10:59:09.526Z,11.55
2018-11-12T11:01:44.288Z,8.97
2018-11-12T11:04:19.006Z,4.93
2018-11-12T11:06:48.948Z,16.83
2018-11-12T11:09:18.731Z,6.97
2018-11-12T11:11:48.441Z,6.53
2018-11-12T11:14:18.084Z,3.90
2018-11-12T11:16:48.289Z,3.53
2018-11-12T11:19:18.055Z,2.80
2018-11-12T11:21:47.814Z,6.60
2018-11-12T11:24:17.580Z,4.60
2018-11-12T11:26:47.612Z,3.27
2018-11-12T11:29:17.372Z,3.27
2018-11-12T11:31:47.026Z,4.00
2018-11-12T11:34:16.974Z,3.30
2018-11-12T11:36:46.672Z,4.97
2018-11-12T11:39:16.488Z,5.97
2018-11-12T11:41:46.257Z,7.27
2018-11-12T11:44:16.047Z,4.90
2018-11-12T11:46:45.927Z,5.40
2018-11-12T11:49:15.690Z,7.33
2018-11-12T11:51:45.501Z,7.27
2018-11-12T11:54:15.096Z,6.80
2018-11-12T11:56:44.838Z,7.07
2018-11-12T11:59:14.273Z,8.60
2018-11-12T12:01:43.985Z,6.10
2018-11-12T12:04:13.711Z,6.13
2018-11-12T12:06:43.484Z,3.30
2018-11-12T12:09:13.358Z,3.30
2018-11-12T12:11:43.423Z,6.60
2018-11-12T12:14:13.271Z,9.27
2018-11-12T12:16:43.247Z,6.77
2018-11-12T12:19:13.073Z,8.53
2018-11-12T12:21:42.930Z,7.15
2018-11-12T12:24:12.736Z,10.00
2018-11-12T12:26:42.549Z,7.15
2018-11-12T12:29:12.417Z,7.97
2018-11-12T12:31:42.247Z,6.27
2018-11-12T12:34:12.075Z,5.73
2018-11-12T12:36:41.945Z,6.57
2018-11-12T12:44:08.787Z,10.20
2018-11-12T12:46:38.418Z,7.57
2018-11-12T12:49:08.098Z,8.33
2018-11-12T12:51:38.411Z,7.47
2018-11-12T12:54:08.208Z,9.40
2018-11-12T12:56:37.855Z,10.97
2018-11-12T12:59:07.672Z,10.70
2018-11-12T13:01:37.598Z,11.93
2018-11-12T13:04:07.167Z,12.27
2018-11-12T13:06:37.246Z,10.87
2018-11-12T13:09:10.198Z,11.40
2018-11-12T13:11:40.153Z,11.63
2018-11-12T13:14:09.952Z,18.32
2018-11-12T13:16:39.703Z,9.80
2018-11-12T13:19:09.452Z,9.70
2018-11-12T13:21:39.275Z,9.93
2018-11-12T13:24:08.968Z,11.23
2018-11-12T13:26:38.847Z,9.60
2018-11-12T13:29:15.208Z,14.55
2018-11-12T13:35:07.418Z,10.70
2018-11-12T13:37:50.688Z,9.63
2018-11-12T13:40:37.634Z,15.27
2018-11-12T13:43:07.565Z,15.68
2018-11-12T13:45:37.462Z,13.10
2018-11-12T13:48:07.610Z,13.73
2018-11-12T13:50:37.461Z,12.33
2018-11-12T13:53:07.407Z,17.00
2018-11-12T13:55:37.165Z,14.47
2018-11-12T13:58:07.141Z,16.50
2018-11-12T14:00:36.858Z,16.63
2018-11-12T14:03:06.852Z,17.67
2018-11-12T14:05:36.702Z,14.83
2018-11-12T14:08:06.781Z,19.83
2018-11-12T14:10:36.608Z,15.10
2018-11-12T14:13:06.409Z,19.77
2018-11-12T14:15:36.297Z,16.82
2018-11-12T14:18:06.323Z,20.87
2018-11-12T14:20:36.196Z,22.97
2018-11-12T14:23:06.198Z,27.57
2018-11-12T14:25:36.052Z,27.67
2018-11-12T14:28:06.454Z,27.90
2018-11-12T14:30:36.202Z,26.43
2018-11-12T14:33:06.349Z,30.20
2018-11-12T14:35:36.144Z,36.47
2018-11-12T14:38:06.623Z,36.48
2018-11-12T14:40:36.986Z,37.33
2018-11-12T14:43:07.429Z,37.43
2018-11-12T14:45:37.243Z,38.00
2018-11-12T14:48:07.189Z,39.10
2018-11-12T14:50:37.350Z,34.93
2018-11-12T14:53:07.543Z,38.33
2018-11-12T14:55:37.837Z,40.10
2018-11-12T14:58:08.749Z,38.23
2018-11-12T15:00:38.602Z,45.33
2018-11-12T15:03:08.373Z,39.27
2018-11-12T15:05:38.087Z,41.90
2018-11-12T15:08:08.637Z,35.60
2018-11-12T15:10:38.888Z,41.23
2018-11-12T15:13:08.893Z,47.13
2018-11-12T15:15:38.807Z,50.03
2018-11-12T15:18:08.792Z,46.60
2018-11-12T15:20:38.517Z,53.08
2018-11-12T15:23:08.619Z,44.30
2018-11-12T15:25:38.502Z,44.20
2018-11-12T15:28:08.197Z,49.13
2018-11-12T15:30:38.400Z,42.60
2018-11-12T15:33:08.379Z,45.10
2018-11-12T15:35:38.103Z,52.30
2018-11-12T15:38:08.186Z,50.08
2018-11-12T15:40:37.952Z,46.25
2018-11-12T15:43:08.001Z,51.20
2018-11-12T15:45:38.244Z,45.90
2018-11-12T15:48:08.524Z,49.33
2018-11-12T15:50:38.391Z,45.77
2018-11-12T15:53:08.353Z,48.03
2018-11-12T15:55:38.266Z,46.60
2018-11-12T15:58:09.215Z,46.90
2018-11-12T16:00:39.787Z,49.75
2018-11-12T16:03:09.777Z,47.03
2018-11-12T16:05:39.822Z,46.07
2018-11-12T16:08:09.960Z,54.17
2018-11-12T16:10:39.712Z,47.03
2018-11-12T16:13:09.679Z,44.83
2018-11-12T16:15:39.814Z,45.73
2018-11-12T16:18:10.219Z,48.05
2018-11-12T16:20:40.211Z,42.77
2018-11-12T16:23:10.212Z,44.13
2018-11-12T16:25:40.134Z,44.77
2018-11-12T16:28:10.003Z,42.93
2018-11-12T16:30:39.937Z,40.78
2018-11-12T16:33:10.018Z,37.48
2018-11-12T16:35:39.784Z,36.63
2018-11-12T16:38:10.134Z,34.00
2018-11-12T16:40:40.088Z,31.87
2018-11-12T16:43:10.034Z,30.23
2018-11-12T16:45:39.973Z,27.95
2018-11-12T16:48:10.068Z,28.43
2018-11-12T16:50:40.218Z,25.10
2018-11-12T16:53:10.408Z,38.47
2018-11-12T16:55:40.689Z,29.03
2018-11-12T16:58:10.662Z,26.47
2018-11-12T17:00:41.888Z,25.93
2018-11-12T17:03:12.714Z,23.65
2018-11-12T17:05:42.520Z,23.77
2018-11-12T17:08:12.439Z,27.00
2018-11-12T17:10:42.410Z,24.53
2018-11-12T17:13:12.175Z,24.70
2018-11-12T17:15:42.037Z,24.00
2018-11-12T17:18:12.148Z,22.07
2018-11-12T17:20:42.269Z,22.87
2018-11-12T17:23:12.360Z,23.33
2018-11-12T17:25:42.322Z,25.17
2018-11-12T17:28:12.597Z,26.77
2018-11-12T17:30:42.545Z,24.00
2018-11-12T17:33:12.307Z,24.45
2018-11-12T17:35:42.202Z,23.87
2018-11-12T17:38:12.224Z,24.00
2018-11-12T17:40:42.338Z,29.17
2018-11-12T17:43:12.391Z,23.37
2018-11-12T17:45:42.194Z,25.13
2018-11-12T17:48:12.344Z,24.30
2018-11-12T17:50:42.472Z,24.70
2018-11-12T17:53:13.124Z,23.38
2018-11-12T17:55:43.300Z,24.63
2018-11-12T17:58:13.823Z,24.60
2018-11-12T18:00:43.833Z,23.23
2018-11-12T18:03:15.334Z,22.03
2018-11-12T18:05:45.373Z,20.83
2018-11-12T18:08:16.710Z,21.03
2018-11-12T18:10:46.729Z,21.37
2018-11-12T18:13:17.812Z,21.80
2018-11-12T18:15:48.599Z,19.15
2018-11-12T18:18:19.702Z,19.07
2018-11-12T18:20:51.926Z,19.33
2018-11-12T18:23:23.081Z,19.40
2018-11-12T18:25:53.425Z,21.55
2018-11-12T18:28:23.350Z,18.67
2018-11-12T18:30:53.420Z,20.47
2018-11-12T18:33:23.281Z,18.83
2018-11-12T18:35:53.292Z,17.67
2018-11-12T18:38:23.423Z,17.97
2018-11-12T18:40:53.683Z,18.17
2018-11-12T18:43:23.749Z,17.10
2018-11-12T18:45:53.772Z,18.63
2018-11-12T18:48:23.871Z,16.53
2018-11-12T18:50:54.059Z,14.93
2018-11-12T18:53:24.086Z,16.17
2018-11-12T18:55:53.968Z,18.57
2018-11-12T18:58:24.029Z,18.40
2018-11-12T19:00:53.846Z,17.90
2018-11-12T19:03:23.878Z,18.50
2018-11-12T19:05:54.063Z,17.05
2018-11-12T19:08:24.229Z,20.03
2018-11-12T19:10:54.541Z,20.02
2018-11-12T19:13:24.604Z,19.73
2018-11-12T19:15:54.613Z,20.52
2018-11-12T19:18:25.507Z,19.32
2018-11-12T19:20:55.415Z,21.33
2018-11-12T19:23:25.591Z,25.12
2018-11-12T19:25:55.608Z,21.77
2018-11-12T19:28:25.738Z,22.95
2018-11-12T19:30:56.144Z,18.02
2018-11-12T19:38:23.504Z,17.83
2018-11-12T19:40:53.266Z,22.03
2018-11-12T19:43:23.313Z,19.23
2018-11-12T19:45:53.202Z,17.40
2018-11-12T19:48:22.957Z,18.40
2018-11-12T19:50:52.729Z,19.87
2018-11-12T19:53:22.673Z,18.73
2018-11-12T19:55:52.706Z,18.25
2018-11-12T19:58:22.928Z,18.23
2018-11-12T20:00:53.727Z,18.80
2018-11-12T20:03:23.678Z,19.43
2018-11-12T20:05:53.876Z,18.60
2018-11-12T20:08:24.200Z,17.90
2018-11-12T20:10:54.059Z,17.37
2018-11-12T20:13:24.181Z,19.27
2018-11-12T20:15:57.122Z,19.75
2018-11-12T20:18:27.190Z,17.90
2018-11-12T20:20:57.323Z,18.10
2018-11-12T20:23:27.483Z,22.30
2018-11-12T20:25:57.626Z,18.27
2018-11-12T20:28:27.769Z,18.30
2018-11-12T20:30:58.736Z,19.28
2018-11-12T20:33:29.106Z,17.93
2018-11-12T20:35:59.513Z,17.75
2018-11-12T20:38:29.578Z,22.80
2018-11-12T20:40:59.797Z,17.67
2018-11-12T20:43:30.033Z,32.27
2018-11-12T20:46:00.322Z,22.20
2018-11-12T20:48:30.416Z,19.07
2018-11-12T20:51:00.654Z,17.70
2018-11-12T20:53:30.888Z,20.67
2018-11-12T20:56:01.274Z,18.10
2018-11-12T20:58:31.355Z,21.77
2018-11-12T21:01:01.755Z,20.43
2018-11-12T21:03:32.151Z,21.62
2018-11-12T21:06:02.416Z,18.35
2018-11-12T21:08:32.399Z,19.55
2018-11-12T21:11:02.357Z,19.62
2018-11-12T21:13:32.266Z,19.87
2018-11-12T21:16:02.160Z,20.48
2018-11-12T21:18:31.958Z,19.90
2018-11-12T21:21:02.099Z,21.23
2018-11-12T21:23:32.416Z,18.57
2018-11-12T21:26:02.535Z,19.03
2018-11-12T21:28:32.638Z,18.60
2018-11-12T21:31:02.646Z,21.13
2018-11-12T21:33:32.629Z,17.87
2018-11-12T21:36:02.675Z,20.47
2018-11-12T21:38:32.729Z,17.47
2018-11-12T21:42:32.357Z,16.97
2018-11-12T21:45:02.248Z,16.73
2018-11-12T21:47:32.109Z,16.93
2018-11-12T21:50:02.295Z,18.70
2018-11-12T21:52:32.281Z,17.63
2018-11-12T21:55:02.324Z,17.63
2018-11-12T21:57:32.431Z,18.37
2018-11-12T22:00:02.505Z,19.83
2018-11-12T22:02:32.397Z,15.87
2018-11-12T22:05:02.326Z,15.93
2018-11-12T22:07:32.348Z,14.93
2018-11-12T22:10:02.502Z,16.43
2018-11-12T22:12:32.409Z,17.00
2018-11-12T22:15:02.164Z,15.70
2018-11-12T22:17:32.003Z,13.40
2018-11-12T22:20:02.017Z,14.97
2018-11-12T22:22:31.898Z,15.13
2018-11-12T22:25:01.781Z,16.70
2018-11-12T22:27:31.726Z,13.37
2018-11-12T22:30:01.619Z,14.40
2018-11-12T22:32:32.063Z,15.58
2018-11-12T22:35:03.084Z,15.37
2018-11-12T22:37:33.011Z,16.40
2018-11-12T22:40:02.759Z,12.93
2018-11-12T22:42:32.686Z,15.40
2018-11-12T22:45:02.539Z,14.03
2018-11-12T22:47:32.571Z,14.40
2018-11-12T22:50:02.460Z,14.17
2018-11-12T22:52:32.436Z,13.13
2018-11-12T22:55:02.329Z,13.90
2018-11-12T22:57:32.090Z,13.23
2018-11-12T23:00:02.061Z,17.70
2018-11-12T23:02:32.203Z,19.83
2018-11-12T23:05:02.085Z,18.13
2018-11-12T23:07:32.039Z,19.73
2018-11-12T23:10:01.902Z,22.47
2018-11-12T23:12:32.273Z,23.63
2018-11-12T23:15:01.825Z,25.97
2018-11-12T23:17:31.923Z,24.17
2018-11-12T23:20:01.715Z,24.52
2018-11-12T23:22:31.476Z,26.20
2018-11-12T23:25:01.278Z,27.10
2018-11-12T23:27:30.905Z,25.53
2018-11-12T23:30:00.582Z,27.07
2018-11-12T23:32:31.486Z,26.93
2018-11-12T23:35:01.427Z,28.92
2018-11-12T23:37:31.146Z,27.47
2018-11-12T23:40:01.049Z,28.30
2018-11-12T23:42:31.008Z,29.37
2018-11-12T23:45:00.906Z,28.47
2018-11-12T23:47:30.832Z,29.23
2018-11-12T23:50:00.509Z,29.63
2018-11-12T23:52:30.519Z,28.05
2018-11-12T23:55:00.356Z,29.65
2018-11-12T23:57:30.109Z,27.80
2018-11-12T23:59:59.968Z,31.03
